Karla A — TCCR8 — position and weather

sailwx.info

Track history (hours):
 
Tides and Currents Weather Stations Pressure Air Temp Water Temp Dewpoint Dewpoint Depression Visibility Wind Speed Wind Dir Waves Ship Positions

Karla A

Last reported at 2016-May-26 23:05 UTC. Time now 2016-May-29 21:13 UTC.
Position N 41°02' E 029°00'.

Length 155 m; draft 8.3 m.

Type: Ship (hazmat cat A). MMSI: 271000744.

Date/timePositionNaut miles runAvg speedWind from/ knotsBaromVisibWave heightAir tempDewpointWater temp
2016-May-26 23:05N 41°02' E 029°00'611.3
2016-May-26 22:32N 40°56' E 028°58'11 2.5
2016-May-26 18:06N 40°46' E 028°52'0 0.4
2016-May-26 17:27N 40°46' E 028°51'0 0.2
2016-May-26 15:31N 40°46' E 028°51'1 0.3
2016-May-26 13:33N 40°46' E 028°50'0 0.3
2016-May-26 12:19N 40°45' E 028°50'0 0.4
2016-May-26 11:33N 40°45' E 028°49'1 0.5
2016-May-26 10:14N 40°45' E 028°48'7 9.0
2016-May-26 09:30N 40°51' E 028°45'6 0.2
2016-May-25 06:27N 40°56' E 028°40'7 7.4
2016-May-25 05:26N 40°49' E 028°41'29 9.9
2016-May-25 02:29N 40°25' E 029°04'1 0.2
2016-May-24 22:10N 40°25' E 029°05'2 3.6
2016-May-24 21:32N 40°26' E 029°02'25411.6
2016-May-23 23:33N 37°55' E 024°37'1413.6
2016-May-23 22:33N 37°43' E 024°31'1913.4
2016-May-23 21:09N 37°27' E 024°18'813.7
2016-May-23 20:33N 37°21' E 024°11'1413.6
2016-May-23 19:33N 37°11' E 023°59'1414.0
2016-May-23 18:33N 37°00' E 023°48'1414.0
2016-May-23 17:33N 36°51' E 023°35'1413.7
2016-May-23 16:33N 36°39' E 023°26'1313.5
2016-May-23 15:33N 36°26' E 023°20'39113.5
2016-May-22 10:33N 36°29' E 015°13'1413.7
2016-May-22 09:33N 36°32' E 014°57'1413.8
2016-May-22 08:33N 36°36' E 014°41'1414.0
2016-May-22 07:34N 36°41' E 014°24'1414.1
2016-May-22 06:34N 36°47' E 014°08'1414.2
2016-May-22 05:33N 36°53' E 013°52'1413.7
2016-May-22 04:33N 36°59' E 013°37'9713.9
2016-May-21 21:32N 37°45' E 011°49'12313.7
2016-May-21 12:33N 38°52' E 009°37'1313.1
2016-May-21 11:33N 38°59' E 009°22'1313.3
2016-May-21 10:33N 39°06' E 009°08'7 7.2
2016-May-21 09:31N 39°13' E 009°04'0 0.0
2016-May-21 08:33N 39°13' E 009°04'0 0.0
2016-May-21 07:33N 39°13' E 009°04'0 0.0
2016-May-21 06:32N 39°13' E 009°04'0 0.0
2016-May-21 05:32N 39°13' E 009°04'0 0.0
2016-May-21 04:32N 39°13' E 009°04'0 0.0
2016-May-21 03:31N 39°13' E 009°04'0 0.0
2016-May-21 02:31N 39°13' E 009°04'0 0.0
2016-May-21 01:33N 39°13' E 009°04'0 0.0
2016-May-21 00:33N 39°13' E 009°04'0 0.0
2016-May-20 23:32N 39°13' E 009°04'0 0.0
2016-May-20 22:32N 39°13' E 009°04'0 0.0
2016-May-20 21:31N 39°13' E 009°04'4 4.4
2016-May-20 20:33N 39°09' E 009°06'1212.4
2016-May-20 19:33N 38°57' E 009°05'1313.0
2016-May-20 18:33N 38°49' E 008°51'39112.4
2016-May-19 11:11N 36°58' E 000°57'813.1
2016-May-19 10:32N 36°56' E 000°47'1312.7
2016-May-19 09:33N 36°52' E 000°32'1312.8
2016-May-19 08:32N 36°48' E 000°16'1312.9
2016-May-19 07:33N 36°45' E 000°01'1312.8
2016-May-19 06:33N 36°41' W 000°14'1313.1
2016-May-19 05:31N 36°37' W 000°30'1412.8
2016-May-19 04:26N 36°34' W 000°47'1212.8
2016-May-19 03:31N 36°30' W 001°01'1613.9
2016-May-19 02:22N 36°26' W 001°20'1214.0
2016-May-19 01:29N 36°22' W 001°35'1313.6
2016-May-19 00:33N 36°18' W 001°50'16413.6
2016-May-18 12:28N 36°01' W 005°12'1212.4
2016-May-18 11:28N 36°08' W 005°24'1 0.9
2016-May-18 10:31N 36°08' W 005°25'0 0.0
2016-May-18 09:33N 36°08' W 005°25'1 1.0
2016-May-18 08:22N 36°08' W 005°24'1 0.6
2016-May-18 07:33N 36°08' W 005°24'6 6.1
2016-May-18 06:33N 36°04' W 005°18'1 1.4
2016-May-18 05:33N 36°05' W 005°20'  
Track history (hours):
 
Tides and Currents Weather Stations Pressure Air Temp Water Temp Dewpoint Dewpoint Depression Visibility Wind Speed Wind Dir Waves Ship Positions

Karla A

Last reported at 2016-May-26 23:05 UTC. Time now 2016-May-29 21:13 UTC.
Position N 41°02' E 029°00'.

Length 155 m; draft 8.3 m.

Type: Ship (hazmat cat A). MMSI: 271000744.

Date/timePositionNaut miles runAvg speedWind from/ knotsBaromVisibWave heightAir tempDewpointWater temp
2016-May-26 23:05N 41°02' E 029°00'611.3
2016-May-26 22:32N 40°56' E 028°58'11 2.5
2016-May-26 18:06N 40°46' E 028°52'0 0.4
2016-May-26 17:27N 40°46' E 028°51'0 0.2
2016-May-26 15:31N 40°46' E 028°51'1 0.3
2016-May-26 13:33N 40°46' E 028°50'0 0.3
2016-May-26 12:19N 40°45' E 028°50'0 0.4
2016-May-26 11:33N 40°45' E 028°49'1 0.5
2016-May-26 10:14N 40°45' E 028°48'7 9.0
2016-May-26 09:30N 40°51' E 028°45'6 0.2
2016-May-25 06:27N 40°56' E 028°40'7 7.4
2016-May-25 05:26N 40°49' E 028°41'29 9.9
2016-May-25 02:29N 40°25' E 029°04'1 0.2
2016-May-24 22:10N 40°25' E 029°05'2 3.6
2016-May-24 21:32N 40°26' E 029°02'25411.6
2016-May-23 23:33N 37°55' E 024°37'1413.6
2016-May-23 22:33N 37°43' E 024°31'1913.4
2016-May-23 21:09N 37°27' E 024°18'813.7
2016-May-23 20:33N 37°21' E 024°11'1413.6
2016-May-23 19:33N 37°11' E 023°59'1414.0
2016-May-23 18:33N 37°00' E 023°48'1414.0
2016-May-23 17:33N 36°51' E 023°35'1413.7
2016-May-23 16:33N 36°39' E 023°26'1313.5
2016-May-23 15:33N 36°26' E 023°20'39113.5
2016-May-22 10:33N 36°29' E 015°13'1413.7
2016-May-22 09:33N 36°32' E 014°57'1413.8
2016-May-22 08:33N 36°36' E 014°41'1414.0
2016-May-22 07:34N 36°41' E 014°24'1414.1
2016-May-22 06:34N 36°47' E 014°08'1414.2
2016-May-22 05:33N 36°53' E 013°52'1413.7
2016-May-22 04:33N 36°59' E 013°37'9713.9
2016-May-21 21:32N 37°45' E 011°49'12313.7
2016-May-21 12:33N 38°52' E 009°37'1313.1
2016-May-21 11:33N 38°59' E 009°22'1313.3
2016-May-21 10:33N 39°06' E 009°08'7 7.2
2016-May-21 09:31N 39°13' E 009°04'0 0.0
2016-May-21 08:33N 39°13' E 009°04'0 0.0
2016-May-21 07:33N 39°13' E 009°04'0 0.0
2016-May-21 06:32N 39°13' E 009°04'0 0.0
2016-May-21 05:32N 39°13' E 009°04'0 0.0
2016-May-21 04:32N 39°13' E 009°04'0 0.0
2016-May-21 03:31N 39°13' E 009°04'0 0.0
2016-May-21 02:31N 39°13' E 009°04'0 0.0
2016-May-21 01:33N 39°13' E 009°04'0 0.0
2016-May-21 00:33N 39°13' E 009°04'0 0.0
2016-May-20 23:32N 39°13' E 009°04'0 0.0
2016-May-20 22:32N 39°13' E 009°04'0 0.0
2016-May-20 21:31N 39°13' E 009°04'4 4.4
2016-May-20 20:33N 39°09' E 009°06'1212.4
2016-May-20 19:33N 38°57' E 009°05'1313.0
2016-May-20 18:33N 38°49' E 008°51'39112.4
2016-May-19 11:11N 36°58' E 000°57'813.1
2016-May-19 10:32N 36°56' E 000°47'1312.7
2016-May-19 09:33N 36°52' E 000°32'1312.8
2016-May-19 08:32N 36°48' E 000°16'1312.9
2016-May-19 07:33N 36°45' E 000°01'1312.8
2016-May-19 06:33N 36°41' W 000°14'1313.1
2016-May-19 05:31N 36°37' W 000°30'1412.8
2016-May-19 04:26N 36°34' W 000°47'1212.8
2016-May-19 03:31N 36°30' W 001°01'1613.9
2016-May-19 02:22N 36°26' W 001°20'1214.0
2016-May-19 01:29N 36°22' W 001°35'1313.6
2016-May-19 00:33N 36°18' W 001°50'16413.6
2016-May-18 12:28N 36°01' W 005°12'1212.4
2016-May-18 11:28N 36°08' W 005°24'1 0.9
2016-May-18 10:31N 36°08' W 005°25'0 0.0
2016-May-18 09:33N 36°08' W 005°25'1 1.0
2016-May-18 08:22N 36°08' W 005°24'1 0.6
2016-May-18 07:33N 36°08' W 005°24'6 6.1
2016-May-18 06:33N 36°04' W 005°18'1 1.4
2016-May-18 05:33N 36°05' W 005°20'  

Dump ship's entire track history